Time;durP1;ratioP1;P1;durP2;ratioP2;P2;SDS_P1;SDS_P2;PMS_P1;PMS_P2;Temp;Humidity;BMP_temperature;BMP_pressure;BME280_temperature;BME280_humidity;BME280_pressure;Samples;Min_cycle;Max_cycle;Signal;HPM_P1;HPM_P2
2022/10/08 00:00:54;;;;;;;;;;;10.30;99.90;;;;;;5034506;28;19920;-69
2022/10/08 00:03:20;;;;;;;;;;;10.30;99.90;;;;;;5050402;28;20043;-69
2022/10/08 00:05:55;;;;;;;;;;;10.30;99.90;;;;;;5044644;28;20095;-69
2022/10/08 00:08:22;;;;;;;;;;;10.20;99.90;;;;;;5049054;23;19951;31
2022/10/08 00:10:52;;;;;;;;;;;10.20;99.90;;;;;;5014434;28;20051;-75
2022/10/08 00:13:17;;;;;;;;;;;10.20;99.90;;;;;;5005554;28;20238;-75
2022/10/08 00:15:43;;;;;;;;;;;10.20;99.90;;;;;;5018931;28;20463;-74
2022/10/08 00:18:08;;;;;;;;;;;10.20;99.90;;;;;;4998318;28;19924;-74
2022/10/08 00:20:34;;;;;;;;;;;10.20;99.90;;;;;;5021528;28;19932;-74
2022/10/08 00:23:00;;;;;;;;;;;10.20;99.90;;;;;;5020866;28;20296;-75
2022/10/08 00:25:26;;;;;;;;;;;10.20;99.90;;;;;;5013585;28;19917;-74
2022/10/08 00:27:52;;;;;;;;;;;10.10;99.90;;;;;;5021760;28;20352;-76
2022/10/08 00:30:17;;;;;;;;;;;10.10;99.90;;;;;;5012514;28;20498;-74
2022/10/08 00:32:43;;;;;;;;;;;10.00;99.90;;;;;;5023223;28;19917;-74
2022/10/08 00:35:09;;;;;;;;;;;10.10;99.90;;;;;;5021684;28;19932;-75
2022/10/08 00:37:35;;;;;;;;;;;10.00;99.90;;;;;;5022843;28;19956;-75
2022/10/08 00:40:00;;;;;;;;;;;10.10;99.90;;;;;;5003771;28;20019;-74
2022/10/08 00:42:26;;;;;;;;;;;10.10;99.90;;;;;;5022172;28;19917;-75
2022/10/08 00:48:02;;;;;;;;;;;10.00;99.90;;;;;;4863394;28;19938;-74
2022/10/08 00:50:32;;;;;;;;;;;10.00;99.90;;;;;;4962874;28;19956;-74
2022/10/08 00:53:00;;;;;;;;;;;10.00;99.90;;;;;;4956705;28;19918;-74
2022/10/08 00:55:27;;;;;;;;;;;10.00;99.90;;;;;;4958035;28;19929;-75
2022/10/08 00:57:53;;;;;;;;;;;10.00;99.90;;;;;;4959178;28;20436;-75
2022/10/08 01:00:20;;;;;;;;;;;9.90;99.90;;;;;;4955764;28;19933;-75
2022/10/08 01:02:45;;;;;;;;;;;9.90;99.90;;;;;;4956277;28;20024;-75
2022/10/08 01:05:13;;;;;;;;;;;9.90;99.90;;;;;;4954298;28;19924;-74
2022/10/08 01:07:38;;;;;;;;;;;9.90;99.90;;;;;;4957757;28;20440;-75
2022/10/08 01:10:25;;;;;;;;;;;9.80;99.90;;;;;;4958537;28;20167;-75
2022/10/08 01:13:10;;;;;;;;;;;9.90;99.90;;;;;;4954518;28;20393;-74
2022/10/08 01:15:40;;;;;;;;;;;9.80;99.90;;;;;;4958751;28;20043;-75
2022/10/08 01:18:09;;;;;;;;;;;9.80;99.90;;;;;;4952202;28;19922;-75
2022/10/08 01:20:53;;;;;;;;;;;9.80;99.90;;;;;;4955435;28;20352;-75
2022/10/08 01:23:26;;;;;;;;;;;9.70;99.90;;;;;;4958000;28;20330;-74
2022/10/08 01:26:00;;;;;;;;;;;9.70;99.90;;;;;;4950777;28;19925;-74
2022/10/08 01:28:35;;;;;;;;;;;9.70;99.90;;;;;;4962131;28;20359;-75
2022/10/08 01:31:14;;;;;;;;;;;9.70;99.90;;;;;;4959543;28;20426;-75
2022/10/08 01:33:48;;;;;;;;;;;9.70;99.90;;;;;;4955985;28;19918;-75
2022/10/08 01:36:16;;;;;;;;;;;9.70;99.90;;;;;;4955860;28;19920;-75
2022/10/08 01:38:44;;;;;;;;;;;9.70;99.90;;;;;;4957266;28;19929;-75
2022/10/08 01:41:11;;;;;;;;;;;9.60;99.90;;;;;;4948822;28;19923;-74
2022/10/08 01:43:38;;;;;;;;;;;9.60;99.90;;;;;;4966650;28;20374;-74
2022/10/08 01:46:07;;;;;;;;;;;9.60;99.90;;;;;;4950018;28;19918;-75
2022/10/08 01:48:34;;;;;;;;;;;9.60;99.90;;;;;;4949265;28;19988;-76
2022/10/08 01:51:09;;;;;;;;;;;9.60;99.90;;;;;;4963754;28;19918;-74
2022/10/08 01:53:37;;;;;;;;;;;9.50;99.90;;;;;;4957543;28;20627;-74
2022/10/08 01:56:04;;;;;;;;;;;9.50;99.90;;;;;;4957023;28;20480;-74
2022/10/08 01:58:35;;;;;;;;;;;9.40;99.90;;;;;;4958532;28;20227;-74
2022/10/08 02:01:24;;;;;;;;;;;9.40;99.90;;;;;;4957762;28;19929;-74
2022/10/08 02:06:35;;;;;;;;;;;9.40;99.90;;;;;;4961862;28;19964;-76
2022/10/08 02:09:02;;;;;;;;;;;9.40;99.90;;;;;;4964204;28;20004;-75
2022/10/08 02:11:28;;;;;;;;;;;9.40;99.90;;;;;;4958192;28;20028;-75
2022/10/08 02:13:54;;;;;;;;;;;9.40;99.90;;;;;;4959593;28;19918;-74
2022/10/08 02:16:27;;;;;;;;;;;9.30;99.90;;;;;;4954760;28;19945;-75
2022/10/08 02:18:57;;;;;;;;;;;9.30;99.90;;;;;;4964163;28;20453;-74
2022/10/08 02:21:23;;;;;;;;;;;9.30;99.90;;;;;;4950732;28;20247;-74
2022/10/08 02:23:52;;;;;;;;;;;9.30;99.90;;;;;;4959344;28;20210;-74
2022/10/08 02:26:20;;;;;;;;;;;9.30;99.90;;;;;;4958442;28;20731;-75
2022/10/08 02:28:46;;;;;;;;;;;9.30;99.90;;;;;;4964619;28;19968;-75
2022/10/08 02:31:21;;;;;;;;;;;9.30;99.90;;;;;;4961726;28;19918;-74
2022/10/08 02:33:56;;;;;;;;;;;9.30;99.90;;;;;;4960119;28;19918;-75
2022/10/08 02:36:25;;;;;;;;;;;9.20;99.90;;;;;;4958945;28;19989;-75
2022/10/08 02:38:56;;;;;;;;;;;9.20;99.90;;;;;;4960335;28;19957;-75
2022/10/08 02:41:23;;;;;;;;;;;9.20;99.90;;;;;;4959313;28;20309;-75
2022/10/08 02:43:50;;;;;;;;;;;9.20;99.90;;;;;;4953850;28;19928;-76
2022/10/08 02:46:17;;;;;;;;;;;9.20;99.90;;;;;;4954585;28;19968;-75
2022/10/08 02:48:45;;;;;;;;;;;9.20;99.90;;;;;;4958359;28;20020;-75
2022/10/08 02:51:12;;;;;;;;;;;9.10;99.90;;;;;;4952546;28;20040;-75
2022/10/08 02:53:38;;;;;;;;;;;9.20;99.90;;;;;;4963455;28;20012;-75
2022/10/08 02:56:21;;;;;;;;;;;9.20;99.90;;;;;;4959758;28;19930;-75
2022/10/08 02:58:46;;;;;;;;;;;9.10;99.90;;;;;;4961832;28;19922;-75
2022/10/08 03:01:12;;;;;;;;;;;9.10;99.90;;;;;;4959078;28;19922;-74
2022/10/08 03:03:40;;;;;;;;;;;9.10;99.90;;;;;;4958204;28;19922;-74
2022/10/08 03:06:07;;;;;;;;;;;9.10;99.90;;;;;;4961488;28;19944;-74
2022/10/08 03:08:35;;;;;;;;;;;9.00;99.90;;;;;;4960084;28;20032;-75
2022/10/08 03:11:01;;;;;;;;;;;9.00;99.90;;;;;;4955876;28;19925;-75
2022/10/08 03:13:27;;;;;;;;;;;9.00;99.90;;;;;;4959061;28;19922;-75
2022/10/08 03:15:53;;;;;;;;;;;9.00;99.90;;;;;;4957081;28;20683;-74
2022/10/08 03:18:19;;;;;;;;;;;8.90;99.90;;;;;;4961460;28;20345;-75
2022/10/08 03:20:46;;;;;;;;;;;8.90;99.90;;;;;;4957073;28;20082;-75
2022/10/08 03:23:14;;;;;;;;;;;8.90;99.90;;;;;;4962556;28;19965;-75
2022/10/08 03:25:39;;;;;;;;;;;8.90;99.90;;;;;;4953820;28;19918;-75
2022/10/08 03:28:05;;;;;;;;;;;8.90;99.90;;;;;;4959248;28;20722;-75
2022/10/08 03:30:30;;;;;;;;;;;8.90;99.90;;;;;;4956595;28;19938;-75
2022/10/08 03:32:56;;;;;;;;;;;8.90;99.90;;;;;;4956910;28;19926;-75
2022/10/08 03:35:21;;;;;;;;;;;8.80;99.90;;;;;;4955967;28;19973;-75
2022/10/08 03:37:47;;;;;;;;;;;8.90;99.90;;;;;;4955143;28;20281;-74
2022/10/08 03:40:13;;;;;;;;;;;8.80;99.90;;;;;;4956881;28;19926;-75
2022/10/08 03:42:38;;;;;;;;;;;8.80;99.90;;;;;;4957437;28;19992;-75
2022/10/08 03:45:04;;;;;;;;;;;8.80;99.90;;;;;;4961717;28;20346;-75
2022/10/08 03:47:30;;;;;;;;;;;8.80;99.90;;;;;;4960957;28;19926;-75
2022/10/08 03:49:55;;;;;;;;;;;8.80;99.90;;;;;;4960511;28;19969;-75
2022/10/08 03:52:21;;;;;;;;;;;8.70;99.90;;;;;;4959672;28;19918;-75
2022/10/08 03:54:46;;;;;;;;;;;8.70;99.90;;;;;;4971276;28;20011;-75
2022/10/08 03:57:12;;;;;;;;;;;8.60;99.90;;;;;;4957708;28;20004;-74
2022/10/08 03:59:37;;;;;;;;;;;8.60;99.90;;;;;;4962961;28;20306;-75
2022/10/08 04:02:03;;;;;;;;;;;8.60;99.90;;;;;;4957790;28;19922;-75
2022/10/08 04:04:28;;;;;;;;;;;8.60;99.90;;;;;;4968793;28;20308;-74
2022/10/08 04:06:54;;;;;;;;;;;8.60;99.90;;;;;;4943742;28;20057;-74
2022/10/08 04:09:19;;;;;;;;;;;8.50;99.90;;;;;;4962660;28;20342;-75
2022/10/08 04:11:44;;;;;;;;;;;8.50;99.90;;;;;;4948436;28;19925;-75
2022/10/08 04:14:10;;;;;;;;;;;8.50;99.90;;;;;;4957799;28;19918;-74
2022/10/08 04:16:35;;;;;;;;;;;8.50;99.90;;;;;;4965345;28;19929;-75
2022/10/08 04:19:01;;;;;;;;;;;8.40;99.90;;;;;;4960496;28;19922;-75
2022/10/08 04:21:28;;;;;;;;;;;8.40;99.90;;;;;;4966373;28;19922;-74
2022/10/08 04:23:54;;;;;;;;;;;8.40;99.90;;;;;;4960460;28;19925;-74
2022/10/08 04:26:19;;;;;;;;;;;8.30;99.90;;;;;;4963853;28;19921;-74
2022/10/08 04:28:46;;;;;;;;;;;8.30;99.90;;;;;;4963254;28;19919;-74
2022/10/08 04:31:15;;;;;;;;;;;8.30;99.90;;;;;;4964228;28;19953;-75
2022/10/08 04:33:40;;;;;;;;;;;8.30;99.90;;;;;;4965979;28;19960;-75
2022/10/08 04:36:07;;;;;;;;;;;8.20;99.90;;;;;;4961708;28;19957;-75
2022/10/08 04:38:32;;;;;;;;;;;8.20;99.90;;;;;;4961611;28;19918;-74
2022/10/08 04:41:02;;;;;;;;;;;8.20;99.90;;;;;;4961850;28;19961;-75
2022/10/08 04:43:28;;;;;;;;;;;8.10;99.90;;;;;;4958829;28;20301;-74
2022/10/08 04:45:54;;;;;;;;;;;8.10;99.90;;;;;;4970048;28;19918;-74
2022/10/08 04:48:19;;;;;;;;;;;8.10;99.90;;;;;;4964667;28;19926;-76
2022/10/08 04:50:45;;;;;;;;;;;8.00;99.90;;;;;;4971195;28;19924;-75
2022/10/08 04:53:10;;;;;;;;;;;8.00;99.90;;;;;;4969789;28;20654;-75
2022/10/08 04:55:36;;;;;;;;;;;8.00;99.90;;;;;;4972086;28;19922;-75
2022/10/08 04:58:01;;;;;;;;;;;8.00;99.90;;;;;;4965854;28;20016;-74
2022/10/08 05:00:27;;;;;;;;;;;8.00;99.90;;;;;;4961857;28;20101;-75
2022/10/08 05:02:52;;;;;;;;;;;8.00;99.90;;;;;;4968314;28;19973;-74
2022/10/08 05:05:18;;;;;;;;;;;7.90;99.90;;;;;;4965614;28;19983;-76
2022/10/08 05:07:43;;;;;;;;;;;7.90;99.90;;;;;;4963643;28;20232;-75
2022/10/08 05:10:09;;;;;;;;;;;7.90;99.90;;;;;;4965542;28;20052;-75
2022/10/08 05:12:34;;;;;;;;;;;7.80;99.90;;;;;;4963510;28;19925;-75
2022/10/08 05:15:00;;;;;;;;;;;7.80;99.90;;;;;;4962752;28;20200;-75
2022/10/08 05:17:25;;;;;;;;;;;7.80;99.90;;;;;;4962802;28;19997;-74
2022/10/08 05:19:51;;;;;;;;;;;7.80;99.90;;;;;;4961995;28;19968;-75
2022/10/08 05:22:17;;;;;;;;;;;7.70;99.90;;;;;;4962727;28;19922;-75
2022/10/08 05:24:42;;;;;;;;;;;7.70;99.90;;;;;;4965858;28;20012;-75
2022/10/08 05:27:08;;;;;;;;;;;7.70;99.90;;;;;;4964724;28;20310;-75
2022/10/08 05:29:33;;;;;;;;;;;7.60;99.90;;;;;;4968654;28;20417;-74
2022/10/08 05:31:59;;;;;;;;;;;7.60;99.90;;;;;;4961612;28;19918;-74
2022/10/08 05:34:24;;;;;;;;;;;7.60;99.90;;;;;;4966530;28;19925;-75
2022/10/08 05:36:50;;;;;;;;;;;7.60;99.90;;;;;;4962945;28;19918;-73
2022/10/08 05:39:15;;;;;;;;;;;7.60;99.90;;;;;;4960444;28;20326;-74
2022/10/08 05:41:41;;;;;;;;;;;7.60;99.90;;;;;;4963595;28;19925;-73
2022/10/08 05:44:06;;;;;;;;;;;7.60;99.90;;;;;;4964539;28;19928;-74
2022/10/08 05:46:33;;;;;;;;;;;7.50;99.90;;;;;;4964854;28;19926;-75
2022/10/08 05:49:00;;;;;;;;;;;7.50;99.90;;;;;;4967319;28;20192;-74
2022/10/08 05:51:26;;;;;;;;;;;7.50;99.90;;;;;;4969790;28;20650;-74
2022/10/08 05:53:52;;;;;;;;;;;7.40;99.90;;;;;;4961620;28;20304;-74
2022/10/08 05:56:19;;;;;;;;;;;7.40;99.90;;;;;;4964005;28;20061;-74
2022/10/08 05:58:45;;;;;;;;;;;7.30;99.90;;;;;;4963209;28;20389;-74
2022/10/08 06:01:21;;;;;;;;;;;7.30;99.90;;;;;;4963703;28;19941;-74
2022/10/08 06:03:50;;;;;;;;;;;7.30;99.90;;;;;;4965975;28;20607;-74
2022/10/08 06:06:15;;;;;;;;;;;7.30;99.90;;;;;;4961542;28;19918;-74
2022/10/08 06:08:41;;;;;;;;;;;7.30;99.90;;;;;;4964351;28;20493;-74
2022/10/08 06:11:06;;;;;;;;;;;7.30;99.90;;;;;;4963956;28;19929;-74
2022/10/08 06:13:32;;;;;;;;;;;7.20;99.90;;;;;;4960201;28;20166;-74
2022/10/08 06:15:59;;;;;;;;;;;7.20;99.90;;;;;;4966171;28;20048;-74
2022/10/08 06:18:25;;;;;;;;;;;7.20;99.90;;;;;;4967449;28;19972;-74
2022/10/08 06:20:51;;;;;;;;;;;7.20;99.90;;;;;;4966719;28;20024;-74
2022/10/08 06:23:17;;;;;;;;;;;7.20;99.90;;;;;;4960987;28;20380;-74
2022/10/08 06:25:43;;;;;;;;;;;7.20;99.90;;;;;;4962832;28;19918;-74
2022/10/08 06:28:08;;;;;;;;;;;7.20;99.90;;;;;;4969245;28;19917;-74
2022/10/08 06:30:34;;;;;;;;;;;7.20;99.90;;;;;;4962176;28;20033;-74
2022/10/08 06:32:59;;;;;;;;;;;7.20;99.90;;;;;;4959247;28;19918;-73
2022/10/08 06:35:25;;;;;;;;;;;7.30;99.90;;;;;;4964043;28;19957;-76
2022/10/08 06:37:50;;;;;;;;;;;7.30;99.90;;;;;;4963344;28;19917;-75
2022/10/08 06:40:15;;;;;;;;;;;7.40;99.90;;;;;;4959685;28;19955;-75
2022/10/08 06:42:41;;;;;;;;;;;7.40;99.90;;;;;;4959336;28;20363;-75
2022/10/08 06:45:07;;;;;;;;;;;7.50;99.90;;;;;;4946119;28;20005;-76
2022/10/08 06:47:32;;;;;;;;;;;7.60;99.90;;;;;;4962945;28;20202;-74
2022/10/08 06:49:58;;;;;;;;;;;7.60;99.90;;;;;;4964392;28;19918;-75
2022/10/08 06:52:23;;;;;;;;;;;7.70;99.90;;;;;;4962238;28;19918;-76
2022/10/08 06:54:49;;;;;;;;;;;7.70;99.90;;;;;;4975568;28;20130;-75
2022/10/08 06:57:15;;;;;;;;;;;7.80;99.90;;;;;;4970033;28;19947;-75
2022/10/08 06:59:40;;;;;;;;;;;7.90;99.90;;;;;;4960793;28;20016;-75
2022/10/08 07:02:07;;;;;;;;;;;7.80;99.90;;;;;;4961225;28;19917;-75
2022/10/08 07:04:32;;;;;;;;;;;7.90;99.90;;;;;;4958661;28;19918;-76
2022/10/08 07:06:58;;;;;;;;;;;7.90;99.90;;;;;;4953098;28;19918;-76
2022/10/08 07:09:23;;;;;;;;;;;8.00;99.90;;;;;;4959956;28;20468;-76
2022/10/08 07:11:49;;;;;;;;;;;8.10;99.90;;;;;;4960113;28;19918;-75
2022/10/08 07:14:14;;;;;;;;;;;8.10;99.90;;;;;;3927796;28;10000397;-75
2022/10/08 07:16:40;;;;;;;;;;;8.20;99.90;;;;;;4952292;28;19925;-75
2022/10/08 07:19:05;;;;;;;;;;;8.30;99.90;;;;;;4953974;28;20056;-76
2022/10/08 07:21:31;;;;;;;;;;;8.30;99.90;;;;;;4959398;28;19922;-74
2022/10/08 07:24:00;;;;;;;;;;;8.40;99.90;;;;;;4958116;28;19918;-75
2022/10/08 07:26:27;;;;;;;;;;;8.40;99.90;;;;;;4954701;28;20293;-76
2022/10/08 07:28:57;;;;;;;;;;;8.40;99.90;;;;;;4957192;28;19965;-75
2022/10/08 07:31:25;;;;;;;;;;;8.40;99.90;;;;;;4953331;28;19921;-76
2022/10/08 07:33:51;;;;;;;;;;;8.40;99.90;;;;;;4958224;28;19918;-76
2022/10/08 07:36:18;;;;;;;;;;;8.50;99.90;;;;;;4954607;28;19953;-76
2022/10/08 07:38:43;;;;;;;;;;;8.60;99.90;;;;;;4954840;28;19989;-76
2022/10/08 07:41:10;;;;;;;;;;;8.60;99.90;;;;;;4945161;28;19922;-77
2022/10/08 07:43:36;;;;;;;;;;;8.70;99.90;;;;;;4954725;28;20032;-76
2022/10/08 07:46:04;;;;;;;;;;;8.80;99.90;;;;;;4954266;28;19917;-76
2022/10/08 07:48:30;;;;;;;;;;;8.80;99.90;;;;;;4951633;28;20133;-74
2022/10/08 07:51:04;;;;;;;;;;;9.00;99.90;;;;;;4958235;28;20668;-76
2022/10/08 07:53:29;;;;;;;;;;;9.10;99.90;;;;;;4954128;28;19922;-75
2022/10/08 07:55:56;;;;;;;;;;;10.00;99.90;;;;;;4950282;28;20283;-76
2022/10/08 07:58:21;;;;;;;;;;;12.60;99.90;;;;;;4947180;28;20278;-75
2022/10/08 08:00:47;;;;;;;;;;;14.10;99.90;;;;;;4949661;28;20050;-76
2022/10/08 08:03:13;;;;;;;;;;;16.70;99.90;;;;;;4949776;28;19918;-77
2022/10/08 08:05:39;;;;;;;;;;;19.10;99.90;;;;;;4950750;28;19922;-76
2022/10/08 08:08:04;;;;;;;;;;;20.50;92.70;;;;;;4952714;28;19925;-77
2022/10/08 08:10:30;;;;;;;;;;;22.50;82.10;;;;;;4954206;28;20020;-77
2022/10/08 08:12:56;;;;;;;;;;;23.40;72.50;;;;;;4954545;28;19918;-77
2022/10/08 08:15:21;;;;;;;;;;;24.50;67.60;;;;;;4941926;28;20083;-76
2022/10/08 08:17:46;;;;;;;;;;;25.30;63.30;;;;;;4960490;28;20012;-78
2022/10/08 08:20:12;;;;;;;;;;;25.50;60.00;;;;;;4969689;28;19933;-79
2022/10/08 08:22:37;;;;;;;;;;;25.50;59.20;;;;;;4967666;28;19959;-77
2022/10/08 08:25:03;;;;;;;;;;;26.10;60.10;;;;;;4964662;28;20236;-78
2022/10/08 08:27:29;;;;;;;;;;;26.00;56.60;;;;;;4965426;28;20335;-80
2022/10/08 08:29:54;;;;;;;;;;;26.50;56.20;;;;;;4963573;28;19918;-79
2022/10/08 08:32:20;;;;;;;;;;;26.50;53.30;;;;;;4964224;28;20342;-78
2022/10/08 08:34:46;;;;;;;;;;;26.60;53.40;;;;;;4973358;28;20021;-79
2022/10/08 08:37:11;;;;;;;;;;;26.50;53.60;;;;;;4971773;28;20030;-79
2022/10/08 08:39:37;;;;;;;;;;;26.30;53.60;;;;;;4964821;28;20405;-80
2022/10/08 08:42:02;;;;;;;;;;;26.70;51.30;;;;;;4972952;28;19918;-78
2022/10/08 08:44:33;;;;;;;;;;;27.10;50.00;;;;;;4964857;28;20299;-78
2022/10/08 08:47:11;;;;;;;;;;;26.90;50.90;;;;;;4964236;28;19929;-77
2022/10/08 08:49:46;;;;;;;;;;;26.80;51.70;;;;;;4965285;28;20370;-77
2022/10/08 08:52:13;;;;;;;;;;;26.40;50.90;;;;;;4964675;28;19931;-76
2022/10/08 08:54:39;;;;;;;;;;;26.70;50.30;;;;;;4967055;28;19925;-76
2022/10/08 08:57:10;;;;;;;;;;;26.20;50.10;;;;;;4976430;28;19917;-77
2022/10/08 08:59:40;;;;;;;;;;;26.60;51.10;;;;;;4963303;28;20011;-76
2022/10/08 09:02:15;;;;;;;;;;;26.80;51.40;;;;;;4963957;28;20294;-76
2022/10/08 09:04:46;;;;;;;;;;;27.50;49.00;;;;;;4958052;28;19977;-75
2022/10/08 09:07:15;;;;;;;;;;;27.30;48.20;;;;;;4968465;28;19918;-76
2022/10/08 09:09:46;;;;;;;;;;;26.90;47.90;;;;;;4978103;28;19917;-76
2022/10/08 09:12:17;;;;;;;;;;;27.00;51.30;;;;;;4969361;28;20433;-77
2022/10/08 09:14:45;;;;;;;;;;;26.80;50.00;;;;;;4973328;28;19968;-76
2022/10/08 09:17:15;;;;;;;;;;;27.40;49.10;;;;;;4962755;28;20378;-76
2022/10/08 09:19:41;;;;;;;;;;;27.10;48.30;;;;;;4968141;28;20335;-76
2022/10/08 09:22:14;;;;;;;;;;;27.30;50.10;;;;;;4979726;28;19924;-77
2022/10/08 09:24:40;;;;;;;;;;;27.50;47.90;;;;;;4981120;28;19913;-77
2022/10/08 09:27:11;;;;;;;;;;;27.70;47.70;;;;;;4978222;28;19918;-76
2022/10/08 09:29:37;;;;;;;;;;;26.80;51.30;;;;;;4973584;28;20477;-76
2022/10/08 09:32:02;;;;;;;;;;;27.00;48.60;;;;;;4952299;28;19915;-76
2022/10/08 09:34:28;;;;;;;;;;;26.70;50.80;;;;;;4956878;28;19940;-75
2022/10/08 09:37:02;;;;;;;;;;;26.20;50.70;;;;;;4963286;28;19918;-75
2022/10/08 09:39:29;;;;;;;;;;;26.60;51.10;;;;;;4969338;28;19968;-76
2022/10/08 09:42:07;;;;;;;;;;;26.60;49.70;;;;;;4970566;28;19928;-76
2022/10/08 09:44:38;;;;;;;;;;;26.70;50.10;;;;;;4976106;28;19939;-76
2022/10/08 09:47:05;;;;;;;;;;;26.90;49.10;;;;;;4976546;28;19926;-76
2022/10/08 09:49:31;;;;;;;;;;;27.10;50.40;;;;;;4962955;28;19929;-75
2022/10/08 09:51:58;;;;;;;;;;;27.10;49.50;;;;;;4957029;28;19929;-75
2022/10/08 09:54:26;;;;;;;;;;;27.20;51.30;;;;;;4957054;28;19922;-76
2022/10/08 09:56:53;;;;;;;;;;;27.40;47.70;;;;;;4619263;28;10000232;-76
2022/10/08 09:59:19;;;;;;;;;;;27.30;50.30;;;;;;4280102;28;10000727;-76
2022/10/08 10:01:46;;;;;;;;;;;27.30;48.10;;;;;;4971864;28;20380;-75
2022/10/08 10:04:19;;;;;;;;;;;27.20;48.60;;;;;;4616782;28;9999873;-75
2022/10/08 10:06:47;;;;;;;;;;;27.00;49.90;;;;;;4959183;28;19925;-75
2022/10/08 10:09:32;;;;;;;;;;;27.00;49.80;;;;;;4963104;28;20322;-75
2022/10/08 10:12:03;;;;;;;;;;;26.90;48.40;;;;;;4944313;28;19918;-76
2022/10/08 10:14:49;;;;;;;;;;;27.10;49.50;;;;;;4943789;29;19915;-76
2022/10/08 10:17:15;;;;;;;;;;;27.50;50.70;;;;;;4965421;28;19918;-76
2022/10/08 10:19:44;;;;;;;;;;;27.50;50.40;;;;;;4964556;28;20045;-75
2022/10/08 10:22:12;;;;;;;;;;;28.00;48.80;;;;;;4961264;28;19918;-74
2022/10/08 10:24:41;;;;;;;;;;;27.70;47.80;;;;;;4963373;28;19918;-73
2022/10/08 10:27:12;;;;;;;;;;;26.80;48.00;;;;;;4963175;28;19920;-73
2022/10/08 10:29:42;;;;;;;;;;;27.20;49.90;;;;;;4963094;28;19964;-73
2022/10/08 10:32:13;;;;;;;;;;;27.40;47.10;;;;;;4965238;28;20634;-74
2022/10/08 10:34:41;;;;;;;;;;;27.60;48.40;;;;;;4958791;28;20077;-73
2022/10/08 10:37:10;;;;;;;;;;;27.60;49.00;;;;;;4970878;28;19985;-73
2022/10/08 10:39:50;;;;;;;;;;;27.40;47.70;;;;;;4970140;28;19922;-75
2022/10/08 10:42:19;;;;;;;;;;;27.50;49.20;;;;;;4978029;28;20439;-74
2022/10/08 10:44:52;;;;;;;;;;;27.10;49.20;;;;;;4959207;28;20351;-75
2022/10/08 10:47:26;;;;;;;;;;;27.10;47.80;;;;;;4951310;28;19930;-73
2022/10/08 10:49:52;;;;;;;;;;;27.20;50.30;;;;;;4956068;28;20271;-74
2022/10/08 10:52:32;;;;;;;;;;;27.30;47.80;;;;;;4957945;28;20021;-74
2022/10/08 10:54:58;;;;;;;;;;;27.30;49.20;;;;;;4953591;28;19933;-75
2022/10/08 10:57:32;;;;;;;;;;;26.90;49.50;;;;;;4947759;28;20009;-74
2022/10/08 11:00:18;;;;;;;;;;;26.80;50.50;;;;;;4964771;28;20048;-74
2022/10/08 11:02:45;;;;;;;;;;;26.50;49.80;;;;;;4961696;28;20382;-75
2022/10/08 11:05:21;;;;;;;;;;;26.40;49.30;;;;;;4960663;28;20333;-74
2022/10/08 11:08:02;;;;;;;;;;;26.20;50.20;;;;;;4953776;28;19941;-74
2022/10/08 11:10:32;;;;;;;;;;;26.40;50.90;;;;;;4966083;28;20190;-74
2022/10/08 11:13:03;;;;;;;;;;;26.20;50.40;;;;;;4966577;28;20295;-75
2022/10/08 11:15:35;;;;;;;;;;;25.80;52.10;;;;;;4951669;28;20124;-75
2022/10/08 11:18:20;;;;;;;;;;;25.20;53.30;;;;;;4960606;28;20839;-76
2022/10/08 11:20:54;;;;;;;;;;;24.10;53.70;;;;;;4948772;28;19936;-74
2022/10/08 11:23:28;;;;;;;;;;;23.30;53.80;;;;;;4956536;28;20091;-74
2022/10/08 11:25:57;;;;;;;;;;;22.40;59.90;;;;;;4956707;28;20421;-74
2022/10/08 11:28:26;;;;;;;;;;;22.10;62.70;;;;;;4957027;28;19918;-74
2022/10/08 11:31:12;;;;;;;;;;;22.20;60.70;;;;;;4956393;28;19922;-74
2022/10/08 11:33:38;;;;;;;;;;;21.90;64.10;;;;;;4958606;28;19926;-74
2022/10/08 11:36:06;;;;;;;;;;;21.60;61.60;;;;;;4963077;28;20098;-73
2022/10/08 11:38:37;;;;;;;;;;;21.30;65.80;;;;;;4954385;28;20024;-74
2022/10/08 11:41:11;;;;;;;;;;;21.60;63.50;;;;;;4951714;28;20219;-73
2022/10/08 11:43:47;;;;;;;;;;;21.90;63.90;;;;;;4963926;28;20397;-73
2022/10/08 11:46:27;;;;;;;;;;;22.30;60.60;;;;;;4953808;28;20298;-74
2022/10/08 11:48:53;;;;;;;;;;;22.20;62.00;;;;;;4956291;28;20025;-74
2022/10/08 11:51:18;;;;;;;;;;;22.10;60.10;;;;;;4951403;28;19915;-73
2022/10/08 11:54:04;;;;;;;;;;;22.00;63.70;;;;;;4947863;28;19933;-74
2022/10/08 11:56:31;;;;;;;;;;;21.40;58.80;;;;;;4952109;28;19924;-74
2022/10/08 11:58:58;;;;;;;;;;;21.00;64.10;;;;;;4965158;28;19918;-73
2022/10/08 12:01:23;;;;;;;;;;;20.70;62.90;;;;;;4270359;28;10000791;-73
2022/10/08 12:04:12;;;;;;;;;;;20.80;65.00;;;;;;4951303;28;19918;-74
2022/10/08 12:06:37;;;;;;;;;;;20.80;66.90;;;;;;4950228;28;19922;-73
2022/10/08 12:09:04;;;;;;;;;;;21.10;61.30;;;;;;4954997;28;19948;-74
2022/10/08 12:11:42;;;;;;;;;;;20.90;66.60;;;;;;4947496;28;20134;-73
2022/10/08 12:14:10;;;;;;;;;;;20.60;63.70;;;;;;4953630;28;20433;-74
2022/10/08 12:16:54;;;;;;;;;;;19.90;64.00;;;;;;4969088;28;20052;-74
2022/10/08 12:19:35;;;;;;;;;;;20.00;66.20;;;;;;4966137;28;19929;-74
2022/10/08 12:22:03;;;;;;;;;;;20.10;62.10;;;;;;4955028;28;19926;-74
2022/10/08 12:24:37;;;;;;;;;;;19.90;65.50;;;;;;4970277;28;19939;-74
2022/10/08 12:27:15;;;;;;;;;;;20.20;67.30;;;;;;4945740;28;19925;-74
2022/10/08 12:29:55;;;;;;;;;;;20.40;70.20;;;;;;4949607;28;20444;-74
2022/10/08 12:32:31;;;;;;;;;;;20.90;62.40;;;;;;4956637;28;19918;-73
2022/10/08 12:34:57;;;;;;;;;;;21.10;63.00;;;;;;4953864;28;19995;-74
2022/10/08 12:37:28;;;;;;;;;;;20.80;58.30;;;;;;4955173;28;19918;-73
2022/10/08 12:39:54;;;;;;;;;;;20.20;61.00;;;;;;4958674;28;19972;-77
2022/10/08 12:42:22;;;;;;;;;;;19.80;66.20;;;;;;4956184;28;20595;-73
2022/10/08 12:44:57;;;;;;;;;;;19.90;67.00;;;;;;4956887;28;20776;-73
2022/10/08 12:47:41;;;;;;;;;;;20.00;62.30;;;;;;4956140;28;19925;-73
2022/10/08 12:50:09;;;;;;;;;;;20.10;60.90;;;;;;4956328;28;19993;-75
2022/10/08 12:52:35;;;;;;;;;;;20.20;59.60;;;;;;4975282;28;19972;-73
2022/10/08 12:55:02;;;;;;;;;;;20.10;58.80;;;;;;4981294;28;19918;-73
2022/10/08 12:57:33;;;;;;;;;;;20.10;61.10;;;;;;4966076;28;19918;-74
2022/10/08 13:00:00;;;;;;;;;;;20.20;62.30;;;;;;4962558;28;20001;-73
2022/10/08 13:02:25;;;;;;;;;;;20.10;60.50;;;;;;4960259;28;20385;-74
2022/10/08 13:04:51;;;;;;;;;;;19.90;62.20;;;;;;4975097;28;19918;-73
2022/10/08 13:07:17;;;;;;;;;;;19.80;61.10;;;;;;4976198;28;20037;-74
2022/10/08 13:09:43;;;;;;;;;;;19.90;63.30;;;;;;4969956;28;19929;-73
2022/10/08 13:12:09;;;;;;;;;;;19.80;59.80;;;;;;4970666;28;19917;-73
2022/10/08 13:14:39;;;;;;;;;;;19.80;62.20;;;;;;4963395;28;19966;-73
2022/10/08 13:17:05;;;;;;;;;;;19.80;64.10;;;;;;4966266;28;20038;-74
2022/10/08 13:19:32;;;;;;;;;;;20.00;63.90;;;;;;4962164;28;19925;-74
2022/10/08 13:22:04;;;;;;;;;;;19.90;62.50;;;;;;4962723;28;19922;-74
2022/10/08 13:24:30;;;;;;;;;;;19.90;65.10;;;;;;4966422;28;19922;-74
2022/10/08 13:26:56;;;;;;;;;;;19.90;63.50;;;;;;4978478;28;19917;-76
2022/10/08 13:29:29;;;;;;;;;;;19.90;60.20;;;;;;4975948;28;19940;-74
2022/10/08 13:31:58;;;;;;;;;;;19.70;60.20;;;;;;4960691;28;19928;-74
2022/10/08 13:34:25;;;;;;;;;;;19.50;57.50;;;;;;4965783;28;19914;-75
2022/10/08 13:36:53;;;;;;;;;;;19.40;59.70;;;;;;4963172;28;19918;-74
2022/10/08 13:39:20;;;;;;;;;;;19.40;60.20;;;;;;4964264;28;19941;-74
2022/10/08 13:41:54;;;;;;;;;;;19.30;60.40;;;;;;4960706;28;19928;-74
2022/10/08 13:44:19;;;;;;;;;;;19.20;61.60;;;;;;4959705;28;20012;-76
2022/10/08 13:46:45;;;;;;;;;;;19.30;60.50;;;;;;4961417;28;19970;-76
2022/10/08 13:49:21;;;;;;;;;;;19.20;61.50;;;;;;4968866;28;20194;-76
2022/10/08 13:51:47;;;;;;;;;;;19.20;61.90;;;;;;4964794;28;19918;-76
2022/10/08 13:54:15;;;;;;;;;;;19.20;60.70;;;;;;4972916;28;19918;-76
2022/10/08 13:56:41;;;;;;;;;;;19.20;59.80;;;;;;4619228;28;10000243;-76
2022/10/08 13:59:08;;;;;;;;;;;19.20;60.80;;;;;;4971805;28;19973;-76
2022/10/08 14:01:33;;;;;;;;;;;19.30;64.60;;;;;;4975563;28;20596;-76
2022/10/08 14:03:59;;;;;;;;;;;19.40;63.10;;;;;;4982054;28;19921;-76
2022/10/08 14:06:24;;;;;;;;;;;19.60;62.60;;;;;;4982290;28;20008;-77
2022/10/08 14:08:50;;;;;;;;;;;19.60;64.00;;;;;;4981584;28;20302;-76
2022/10/08 14:11:16;;;;;;;;;;;19.50;61.70;;;;;;4977799;28;19922;-78
2022/10/08 14:13:42;;;;;;;;;;;19.40;61.40;;;;;;4972289;28;19918;-77
2022/10/08 14:16:08;;;;;;;;;;;19.40;61.80;;;;;;4972073;28;20320;-77
2022/10/08 14:18:33;;;;;;;;;;;19.40;62.30;;;;;;4975350;28;19977;-76
2022/10/08 14:20:59;;;;;;;;;;;19.20;61.50;;;;;;4970489;28;19926;-76
2022/10/08 14:23:24;;;;;;;;;;;19.00;58.40;;;;;;4962297;28;20302;-76
2022/10/08 14:25:50;;;;;;;;;;;19.00;59.50;;;;;;4961409;28;20568;-75
2022/10/08 14:28:16;;;;;;;;;;;18.90;61.30;;;;;;4953305;28;20874;-76
2022/10/08 14:30:41;;;;;;;;;;;19.00;60.40;;;;;;4975929;28;19962;-75
2022/10/08 14:33:07;;;;;;;;;;;18.70;63.00;;;;;;4962710;28;19917;-76
2022/10/08 14:35:32;;;;;;;;;;;18.50;67.00;;;;;;4956567;28;19930;-76